TWA712 KSTL-KPHL
Flight info
| Callsign | TWA712 |
|---|---|
| Flight time | 1h 43m |
| Altitude | 37000 |
| Route | GATWY1 ROD J152 HAR BUNTS3 |
| Aircraft | R722/M-SDFIRWY/S |
Departure
| Time | 2026-05-03 20:52 |
|---|---|
| Airport | St. Louis Lambert International Airport (KSTL) |
Arrival
| Time | 2026-05-03 22:35 |
|---|---|
| Airport | Philadelphia International Airport (KPHL) |
| Time | Latitude | Longitude | Altitude | Speed | Heading |
|---|---|---|---|---|---|
| 2026-05-03 20:17 | 38.74176 | -90.36058 | 573 ft | 0 kts | 191° |
| 2026-05-03 20:38 | 38.74176 | -90.36057 | 573 ft | 0 kts | 191° |
| 2026-05-03 20:39 | 38.74186 | -90.36055 | 575 ft | 2 kts | 190° |
| 2026-05-03 20:39 | 38.74203 | -90.36051 | 573 ft | 2 kts | 191° |
| 2026-05-03 20:40 | 38.74219 | -90.36046 | 574 ft | 2 kts | 202° |
| 2026-05-03 20:40 | 38.74233 | -90.36035 | 575 ft | 2 kts | 217° |
| 2026-05-03 20:40 | 38.74240 | -90.36017 | 579 ft | 2 kts | 269° |
| 2026-05-03 20:40 | 38.74236 | -90.35997 | 575 ft | 2 kts | 295° |
| 2026-05-03 20:41 | 38.74234 | -90.35992 | 575 ft | 0 kts | 298° |
| 2026-05-03 20:45 | 38.74234 | -90.35993 | 575 ft | 0 kts | 298° |
| 2026-05-03 20:45 | 38.74235 | -90.35995 | 575 ft | 0 kts | 299° |
| 2026-05-03 20:46 | 38.74239 | -90.36003 | 575 ft | 4 kts | 301° |
| 2026-05-03 20:46 | 38.74271 | -90.36070 | 575 ft | 14 kts | 301° |
| 2026-05-03 20:46 | 38.74333 | -90.36198 | 575 ft | 20 kts | 300° |
| 2026-05-03 20:46 | 38.74420 | -90.36372 | 569 ft | 26 kts | 302° |
| 2026-05-03 20:47 | 38.74526 | -90.36589 | 565 ft | 30 kts | 302° |
| 2026-05-03 20:47 | 38.74635 | -90.36813 | 562 ft | 25 kts | 300° |
| 2026-05-03 20:47 | 38.74705 | -90.36958 | 565 ft | 18 kts | 303° |
| 2026-05-03 20:47 | 38.74775 | -90.37099 | 566 ft | 19 kts | 302° |
| 2026-05-03 20:48 | 38.74847 | -90.37243 | 565 ft | 16 kts | 302° |
| 2026-05-03 20:48 | 38.74879 | -90.37353 | 566 ft | 11 kts | 295° |
| 2026-05-03 20:48 | 38.74925 | -90.37450 | 561 ft | 14 kts | 302° |
| 2026-05-03 20:48 | 38.74980 | -90.37569 | 564 ft | 17 kts | 296° |
| 2026-05-03 20:49 | 38.75042 | -90.37706 | 554 ft | 19 kts | 306° |
| 2026-05-03 20:49 | 38.75127 | -90.37857 | 554 ft | 20 kts | 300° |
| 2026-05-03 20:49 | 38.75170 | -90.37949 | 551 ft | 10 kts | 301° |
| 2026-05-03 20:49 | 38.75222 | -90.38016 | 562 ft | 12 kts | 349° |
| 2026-05-03 20:50 | 38.75302 | -90.37975 | 550 ft | 14 kts | 33° |
| 2026-05-03 20:50 | 38.75370 | -90.37903 | 553 ft | 11 kts | 71° |
| 2026-05-03 20:50 | 38.75362 | -90.37856 | 555 ft | 0 kts | 120° |
| 2026-05-03 20:51 | 38.75342 | -90.37816 | 550 ft | 31 kts | 123° |
| 2026-05-03 20:51 | 38.75077 | -90.37281 | 558 ft | 108 kts | 123° |
| 2026-05-03 20:52 | 38.74575 | -90.36243 | 578 ft | 162 kts | 126° |
| 2026-05-03 20:52 | 38.73942 | -90.34931 | 905 ft | 181 kts | 128° |
| 2026-05-03 20:52 | 38.73297 | -90.33530 | 1722 ft | 183 kts | 128° |
| 2026-05-03 20:52 | 38.72636 | -90.32083 | 2464 ft | 190 kts | 127° |
| 2026-05-03 20:53 | 38.72201 | -90.31125 | 3028 ft | 191 kts | 126° |
| 2026-05-03 20:53 | 38.71517 | -90.29627 | 3711 ft | 204 kts | 128° |
| 2026-05-03 20:53 | 38.70667 | -90.27973 | 4130 ft | 237 kts | 130° |
| 2026-05-03 20:53 | 38.69843 | -90.25996 | 4738 ft | 270 kts | 109° |
| 2026-05-03 20:54 | 38.69714 | -90.23514 | 5570 ft | 293 kts | 82° |
| 2026-05-03 20:54 | 38.70519 | -90.18005 | 7091 ft | 336 kts | 76° |
| 2026-05-03 20:54 | 38.71010 | -90.15104 | 8330 ft | 330 kts | 73° |
| 2026-05-03 20:55 | 38.71509 | -90.12217 | 9553 ft | 337 kts | 74° |
| 2026-05-03 20:55 | 38.71983 | -90.09182 | 10272 ft | 352 kts | 78° |
| 2026-05-03 20:55 | 38.72282 | -90.06049 | 11441 ft | 353 kts | 81° |
| 2026-05-03 20:55 | 38.72559 | -90.02889 | 12398 ft | 360 kts | 79° |
| 2026-05-03 20:56 | 38.72861 | -89.99654 | 13264 ft | 372 kts | 79° |
| 2026-05-03 20:56 | 38.73187 | -89.96263 | 13979 ft | 388 kts | 79° |
| 2026-05-03 20:56 | 38.73534 | -89.92758 | 14653 ft | 403 kts | 78° |
| 2026-05-03 20:56 | 38.74083 | -89.89188 | 15340 ft | 415 kts | 73° |
| 2026-05-03 20:57 | 38.74712 | -89.85541 | 16061 ft | 430 kts | 75° |
| 2026-05-03 20:57 | 38.75254 | -89.81666 | 16851 ft | 440 kts | 77° |
| 2026-05-03 20:57 | 38.75744 | -89.77827 | 17973 ft | 443 kts | 77° |
| 2026-05-03 20:57 | 38.76259 | -89.73873 | 18514 ft | 449 kts | 76° |
| 2026-05-03 20:58 | 38.76778 | -89.69891 | 18965 ft | 454 kts | 77° |
| 2026-05-03 20:58 | 38.77293 | -89.65920 | 19580 ft | 456 kts | 77° |
| 2026-05-03 20:58 | 38.77814 | -89.61887 | 20128 ft | 460 kts | 77° |
| 2026-05-03 20:58 | 38.78343 | -89.57799 | 20724 ft | 463 kts | 77° |
| 2026-05-03 20:59 | 38.78869 | -89.53730 | 21315 ft | 466 kts | 77° |
| 2026-05-03 20:59 | 38.79410 | -89.49562 | 21904 ft | 470 kts | 77° |
| 2026-05-03 20:59 | 38.79948 | -89.45415 | 22485 ft | 474 kts | 77° |
| 2026-05-03 20:59 | 38.80491 | -89.41247 | 23066 ft | 478 kts | 77° |
| 2026-05-03 21:00 | 38.81043 | -89.37019 | 23635 ft | 481 kts | 77° |
| 2026-05-03 21:00 | 38.81413 | -89.34194 | 23941 ft | 484 kts | 77° |
| 2026-05-03 21:00 | 38.82166 | -89.28474 | 24557 ft | 490 kts | 77° |
| 2026-05-03 21:00 | 38.82741 | -89.24108 | 25045 ft | 494 kts | 77° |
| 2026-05-03 21:01 | 38.83300 | -89.19703 | 25550 ft | 497 kts | 77° |
| 2026-05-03 21:01 | 38.83871 | -89.15335 | 26087 ft | 500 kts | 77° |
| 2026-05-03 21:01 | 38.84431 | -89.10869 | 26685 ft | 502 kts | 77° |
| 2026-05-03 21:01 | 38.84985 | -89.06452 | 27269 ft | 504 kts | 77° |
| 2026-05-03 21:02 | 38.85538 | -89.02034 | 27890 ft | 505 kts | 77° |
| 2026-05-03 21:02 | 38.86108 | -88.97551 | 28585 ft | 504 kts | 77° |
| 2026-05-03 21:02 | 38.86667 | -88.93143 | 29298 ft | 503 kts | 76° |
| 2026-05-03 21:02 | 38.87248 | -88.88678 | 30020 ft | 502 kts | 76° |
| 2026-05-03 21:03 | 38.87815 | -88.84308 | 30647 ft | 501 kts | 76° |
| 2026-05-03 21:03 | 38.88378 | -88.79965 | 31270 ft | 499 kts | 76° |
| 2026-05-03 21:03 | 38.88956 | -88.75496 | 31937 ft | 497 kts | 75° |
| 2026-05-03 21:03 | 38.89510 | -88.71125 | 32610 ft | 495 kts | 75° |
| 2026-05-03 21:04 | 38.90052 | -88.66769 | 33282 ft | 493 kts | 75° |
| 2026-05-03 21:04 | 38.90583 | -88.62458 | 33968 ft | 489 kts | 75° |
| 2026-05-03 21:04 | 38.91124 | -88.58068 | 34589 ft | 484 kts | 75° |
| 2026-05-03 21:04 | 38.91641 | -88.53803 | 35203 ft | 473 kts | 76° |
| 2026-05-03 21:05 | 38.92136 | -88.49697 | 35702 ft | 462 kts | 74° |
| 2026-05-03 21:05 | 38.92855 | -88.45739 | 36125 ft | 449 kts | 66° |
| 2026-05-03 21:05 | 38.93860 | -88.41968 | 36424 ft | 441 kts | 62° |
| 2026-05-03 21:05 | 38.94953 | -88.38318 | 36681 ft | 438 kts | 62° |
| 2026-05-03 21:06 | 38.96053 | -88.34647 | 36917 ft | 437 kts | 62° |
| 2026-05-03 21:06 | 38.97139 | -88.31005 | 37011 ft | 441 kts | 63° |
| 2026-05-03 21:06 | 38.99314 | -88.23468 | 37023 ft | 452 kts | 64° |
| 2026-05-03 21:07 | 39.01431 | -88.15903 | 37028 ft | 463 kts | 64° |
| 2026-05-03 21:07 | 39.03645 | -88.08007 | 37031 ft | 473 kts | 64° |
| 2026-05-03 21:08 | 39.05918 | -87.99939 | 37020 ft | 482 kts | 64° |
| 2026-05-03 21:08 | 39.08177 | -87.91707 | 37015 ft | 489 kts | 65° |
| 2026-05-03 21:09 | 39.10471 | -87.83382 | 37006 ft | 493 kts | 65° |
| 2026-05-03 21:09 | 39.12804 | -87.74950 | 36997 ft | 496 kts | 65° |
| 2026-05-03 21:10 | 39.14867 | -87.67497 | 36997 ft | 499 kts | 65° |
| 2026-05-03 21:10 | 39.16716 | -87.60818 | 37003 ft | 501 kts | 65° |
| 2026-05-03 21:11 | 39.18813 | -87.53249 | 36998 ft | 503 kts | 65° |
| 2026-05-03 21:11 | 39.21138 | -87.44672 | 37009 ft | 505 kts | 65° |
| 2026-05-03 21:12 | 39.23359 | -87.36420 | 37003 ft | 506 kts | 65° |
| 2026-05-03 21:12 | 39.25694 | -87.27799 | 37011 ft | 506 kts | 65° |
| 2026-05-03 21:13 | 39.28017 | -87.19202 | 37009 ft | 507 kts | 65° |
| 2026-05-03 21:13 | 39.30331 | -87.10646 | 37011 ft | 508 kts | 65° |
| 2026-05-03 21:14 | 39.32665 | -87.02020 | 37012 ft | 508 kts | 65° |
| 2026-05-03 21:14 | 39.35008 | -86.93368 | 37020 ft | 509 kts | 65° |
| 2026-05-03 21:15 | 39.37302 | -86.84665 | 37015 ft | 510 kts | 66° |
| 2026-05-03 21:15 | 39.39606 | -86.75969 | 37010 ft | 510 kts | 66° |
| 2026-05-03 21:16 | 39.41770 | -86.67747 | 37013 ft | 509 kts | 66° |
| 2026-05-03 21:16 | 39.44058 | -86.59045 | 37012 ft | 510 kts | 66° |
| 2026-05-03 21:17 | 39.45970 | -86.51786 | 37016 ft | 510 kts | 66° |
| 2026-05-03 21:17 | 39.48647 | -86.41627 | 37019 ft | 510 kts | 66° |
| 2026-05-03 21:18 | 39.50938 | -86.32938 | 37015 ft | 510 kts | 66° |
| 2026-05-03 21:18 | 39.52748 | -86.26065 | 37022 ft | 510 kts | 66° |
| 2026-05-03 21:19 | 39.54771 | -86.18137 | 37020 ft | 510 kts | 66° |
| 2026-05-03 21:19 | 39.57033 | -86.09394 | 37018 ft | 510 kts | 66° |
| 2026-05-03 21:20 | 39.59285 | -86.00655 | 37020 ft | 509 kts | 66° |
| 2026-05-03 21:20 | 39.61521 | -85.91973 | 37025 ft | 509 kts | 66° |
| 2026-05-03 21:21 | 39.63783 | -85.83286 | 37020 ft | 507 kts | 64° |
| 2026-05-03 21:21 | 39.66502 | -85.74838 | 37019 ft | 501 kts | 58° |
| 2026-05-03 21:22 | 39.69665 | -85.66756 | 37019 ft | 500 kts | 57° |
| 2026-05-03 21:22 | 39.72808 | -85.58709 | 37031 ft | 500 kts | 57° |
| 2026-05-03 21:23 | 39.75951 | -85.50570 | 37027 ft | 500 kts | 58° |
| 2026-05-03 21:23 | 39.79009 | -85.42450 | 37020 ft | 500 kts | 58° |
| 2026-05-03 21:24 | 39.82097 | -85.34249 | 37026 ft | 500 kts | 58° |
| 2026-05-03 21:24 | 39.85181 | -85.26058 | 37009 ft | 500 kts | 58° |
| 2026-05-03 21:25 | 39.87598 | -85.19487 | 37014 ft | 502 kts | 59° |
| 2026-05-03 21:25 | 39.90765 | -85.10855 | 37028 ft | 503 kts | 59° |
| 2026-05-03 21:26 | 39.93806 | -85.02631 | 37042 ft | 504 kts | 59° |
| 2026-05-03 21:26 | 39.96860 | -84.94375 | 37063 ft | 505 kts | 59° |
| 2026-05-03 21:27 | 39.99926 | -84.86089 | 37049 ft | 504 kts | 59° |
| 2026-05-03 21:27 | 40.02974 | -84.77846 | 37058 ft | 503 kts | 59° |
| 2026-05-03 21:28 | 40.05973 | -84.69641 | 37062 ft | 503 kts | 59° |
| 2026-05-03 21:28 | 40.08970 | -84.61386 | 37071 ft | 502 kts | 60° |
| 2026-05-03 21:29 | 40.11967 | -84.53131 | 37072 ft | 502 kts | 60° |
| 2026-05-03 21:29 | 40.14957 | -84.44893 | 37076 ft | 501 kts | 60° |
| 2026-05-03 21:30 | 40.17927 | -84.36703 | 37072 ft | 500 kts | 60° |
| 2026-05-03 21:30 | 40.20921 | -84.28441 | 37072 ft | 499 kts | 60° |
| 2026-05-03 21:31 | 40.23867 | -84.20284 | 37063 ft | 499 kts | 60° |
| 2026-05-03 21:31 | 40.26805 | -84.12090 | 37044 ft | 498 kts | 60° |
| 2026-05-03 21:32 | 40.29678 | -84.03792 | 37033 ft | 500 kts | 68° |
| 2026-05-03 21:32 | 40.30488 | -83.99394 | 37037 ft | 504 kts | 79° |
| 2026-05-03 21:32 | 40.30798 | -83.94812 | 37043 ft | 506 kts | 88° |
| 2026-05-03 21:33 | 40.30385 | -83.85566 | 37035 ft | 504 kts | 89° |
| 2026-05-03 21:33 | 40.30562 | -83.76425 | 37029 ft | 503 kts | 85° |
| 2026-05-03 21:34 | 40.30785 | -83.67225 | 37032 ft | 503 kts | 87° |
| 2026-05-03 21:34 | 40.31024 | -83.58085 | 37035 ft | 503 kts | 86° |
| 2026-05-03 21:35 | 40.31248 | -83.48940 | 37029 ft | 503 kts | 87° |
| 2026-05-03 21:35 | 40.31466 | -83.39748 | 37028 ft | 503 kts | 87° |
| 2026-05-03 21:36 | 40.31684 | -83.30573 | 37029 ft | 503 kts | 87° |
| 2026-05-03 21:36 | 40.31897 | -83.21443 | 37033 ft | 503 kts | 87° |
| 2026-05-03 21:37 | 40.32070 | -83.12339 | 37031 ft | 503 kts | 87° |
| 2026-05-03 21:37 | 40.32277 | -83.03103 | 37033 ft | 503 kts | 87° |
| 2026-05-03 21:38 | 40.32456 | -82.93947 | 37028 ft | 502 kts | 87° |
| 2026-05-03 21:38 | 40.32636 | -82.84820 | 37038 ft | 502 kts | 87° |
| 2026-05-03 21:39 | 40.32807 | -82.75623 | 37046 ft | 502 kts | 87° |
| 2026-05-03 21:39 | 40.32974 | -82.66508 | 37056 ft | 503 kts | 88° |
| 2026-05-03 21:40 | 40.33183 | -82.57310 | 37055 ft | 502 kts | 86° |
| 2026-05-03 21:40 | 40.33232 | -82.48104 | 37051 ft | 501 kts | 85° |
| 2026-05-03 21:41 | 40.33356 | -82.39017 | 37053 ft | 501 kts | 89° |
| 2026-05-03 21:41 | 40.33568 | -82.29919 | 37049 ft | 500 kts | 88° |
| 2026-05-03 21:42 | 40.33663 | -82.20802 | 37053 ft | 499 kts | 86° |
| 2026-05-03 21:42 | 40.33707 | -82.11715 | 37044 ft | 499 kts | 87° |
| 2026-05-03 21:43 | 40.33899 | -82.02611 | 37054 ft | 499 kts | 90° |
| 2026-05-03 21:43 | 40.34019 | -81.93542 | 37055 ft | 498 kts | 87° |
| 2026-05-03 21:44 | 40.34045 | -81.84487 | 37055 ft | 497 kts | 85° |
| 2026-05-03 21:44 | 40.34138 | -81.75384 | 37049 ft | 498 kts | 89° |
| 2026-05-03 21:45 | 40.34293 | -81.66344 | 37044 ft | 497 kts | 89° |
| 2026-05-03 21:45 | 40.34362 | -81.57275 | 37040 ft | 496 kts | 86° |
| 2026-05-03 21:46 | 40.34354 | -81.48839 | 37041 ft | 496 kts | 86° |
| 2026-05-03 21:46 | 40.34435 | -81.39758 | 37032 ft | 496 kts | 89° |
| 2026-05-03 21:47 | 40.34559 | -81.30749 | 37041 ft | 496 kts | 89° |
| 2026-05-03 21:47 | 40.34565 | -81.21711 | 37043 ft | 495 kts | 86° |
| 2026-05-03 21:48 | 40.34540 | -81.12677 | 37042 ft | 495 kts | 87° |
| 2026-05-03 21:48 | 40.34611 | -81.03677 | 37060 ft | 495 kts | 91° |
| 2026-05-03 21:49 | 40.34699 | -80.94642 | 37065 ft | 493 kts | 88° |
| 2026-05-03 21:49 | 40.34667 | -80.85692 | 37050 ft | 492 kts | 85° |
| 2026-05-03 21:50 | 40.34657 | -80.76682 | 37049 ft | 492 kts | 88° |
| 2026-05-03 21:50 | 40.34750 | -80.67730 | 37038 ft | 491 kts | 90° |
| 2026-05-03 21:51 | 40.34713 | -80.60179 | 37048 ft | 490 kts | 85° |
| 2026-05-03 21:51 | 40.34681 | -80.51218 | 37046 ft | 490 kts | 89° |
| 2026-05-03 21:52 | 40.34762 | -80.42337 | 37033 ft | 490 kts | 91° |
| 2026-05-03 21:52 | 40.34676 | -80.33393 | 37025 ft | 489 kts | 86° |
| 2026-05-03 21:53 | 40.34673 | -80.25958 | 37033 ft | 489 kts | 90° |
| 2026-05-03 21:53 | 40.34677 | -80.16960 | 37029 ft | 488 kts | 87° |
| 2026-05-03 21:54 | 40.34570 | -80.08110 | 37036 ft | 488 kts | 89° |
| 2026-05-03 21:54 | 40.34609 | -79.99209 | 37024 ft | 488 kts | 90° |
| 2026-05-03 21:55 | 40.34474 | -79.90253 | 37024 ft | 490 kts | 88° |
| 2026-05-03 21:55 | 40.34468 | -79.81331 | 37031 ft | 491 kts | 90° |
| 2026-05-03 21:56 | 40.34359 | -79.72365 | 37032 ft | 493 kts | 89° |
| 2026-05-03 21:56 | 40.34309 | -79.63345 | 37049 ft | 495 kts | 89° |
| 2026-05-03 21:57 | 40.34239 | -79.54361 | 37054 ft | 496 kts | 89° |
| 2026-05-03 21:57 | 40.34135 | -79.45199 | 37050 ft | 497 kts | 90° |
| 2026-05-03 21:58 | 40.34028 | -79.36068 | 37048 ft | 498 kts | 90° |
| 2026-05-03 21:58 | 40.33935 | -79.26767 | 37054 ft | 499 kts | 90° |
| 2026-05-03 21:59 | 40.33814 | -79.17634 | 37056 ft | 500 kts | 90° |
| 2026-05-03 21:59 | 40.33693 | -79.08439 | 37041 ft | 501 kts | 90° |
| 2026-05-03 22:00 | 40.33571 | -78.99242 | 37023 ft | 502 kts | 90° |
| 2026-05-03 22:00 | 40.33456 | -78.90568 | 37021 ft | 502 kts | 90° |
| 2026-05-03 22:01 | 40.33385 | -78.82805 | 36955 ft | 499 kts | 96° |
| 2026-05-03 22:01 | 40.33345 | -78.73423 | 36993 ft | 498 kts | 96° |
| 2026-05-03 22:02 | 40.33322 | -78.68898 | 37106 ft | 498 kts | 88° |
| 2026-05-03 22:02 | 40.33343 | -78.64344 | 37018 ft | 500 kts | 89° |
| 2026-05-03 22:02 | 40.33265 | -78.55098 | 37026 ft | 500 kts | 90° |
| 2026-05-03 22:03 | 40.33333 | -78.45881 | 37018 ft | 500 kts | 92° |
| 2026-05-03 22:03 | 40.33323 | -78.36686 | 37020 ft | 499 kts | 89° |
| 2026-05-03 22:04 | 40.33213 | -78.27553 | 37016 ft | 499 kts | 88° |
| 2026-05-03 22:04 | 40.33193 | -78.18474 | 37022 ft | 498 kts | 91° |
| 2026-05-03 22:05 | 40.33287 | -78.10576 | 37016 ft | 498 kts | 90° |
| 2026-05-03 22:05 | 40.33100 | -78.01513 | 37026 ft | 498 kts | 91° |
| 2026-05-03 22:06 | 40.33120 | -77.92787 | 37018 ft | 497 kts | 92° |
| 2026-05-03 22:06 | 40.32971 | -77.83711 | 37023 ft | 497 kts | 90° |
| 2026-05-03 22:07 | 40.32935 | -77.74437 | 36349 ft | 499 kts | 93° |
| 2026-05-03 22:07 | 40.32866 | -77.71268 | 35752 ft | 501 kts | 92° |
| 2026-05-03 22:07 | 40.32813 | -77.66558 | 34865 ft | 505 kts | 91° |
| 2026-05-03 22:08 | 40.32848 | -77.61577 | 33972 ft | 509 kts | 89° |
| 2026-05-03 22:08 | 40.32767 | -77.56894 | 32989 ft | 510 kts | 92° |
| 2026-05-03 22:08 | 40.32669 | -77.52265 | 32053 ft | 511 kts | 91° |
| 2026-05-03 22:08 | 40.32675 | -77.47565 | 31137 ft | 511 kts | 88° |
| 2026-05-03 22:09 | 40.32643 | -77.42793 | 30224 ft | 511 kts | 92° |
| 2026-05-03 22:09 | 40.32492 | -77.38183 | 29218 ft | 509 kts | 91° |
| 2026-05-03 22:09 | 40.32501 | -77.32950 | 28066 ft | 501 kts | 88° |
| 2026-05-03 22:10 | 40.32323 | -77.23984 | 26124 ft | 484 kts | 91° |
| 2026-05-03 22:10 | 40.32299 | -77.19622 | 25195 ft | 476 kts | 88° |
| 2026-05-03 22:10 | 40.32308 | -77.15321 | 24292 ft | 468 kts | 92° |
| 2026-05-03 22:10 | 40.32154 | -77.11057 | 23386 ft | 461 kts | 91° |
| 2026-05-03 22:11 | 40.32084 | -77.08219 | 22690 ft | 456 kts | 92° |
| 2026-05-03 22:11 | 40.31678 | -77.04028 | 21662 ft | 449 kts | 102° |
| 2026-05-03 22:11 | 40.30851 | -77.00010 | 20663 ft | 441 kts | 111° |
| 2026-05-03 22:11 | 40.29801 | -76.96218 | 19730 ft | 434 kts | 109° |
| 2026-05-03 22:12 | 40.28837 | -76.92383 | 19014 ft | 424 kts | 109° |
| 2026-05-03 22:12 | 40.27935 | -76.88702 | 18871 ft | 400 kts | 108° |
| 2026-05-03 22:12 | 40.27084 | -76.85142 | 18435 ft | 389 kts | 108° |
| 2026-05-03 22:12 | 40.26246 | -76.81595 | 17852 ft | 382 kts | 107° |
| 2026-05-03 22:13 | 40.25761 | -76.79437 | 17492 ft | 379 kts | 106° |
| 2026-05-03 22:13 | 40.24969 | -76.75993 | 16914 ft | 372 kts | 108° |
| 2026-05-03 22:13 | 40.24192 | -76.72763 | 16380 ft | 368 kts | 107° |
| 2026-05-03 22:13 | 40.23512 | -76.69556 | 15857 ft | 363 kts | 106° |
| 2026-05-03 22:14 | 40.22714 | -76.66459 | 15353 ft | 359 kts | 109° |
| 2026-05-03 22:14 | 40.21986 | -76.63336 | 14851 ft | 355 kts | 103° |
| 2026-05-03 22:14 | 40.21345 | -76.60201 | 14359 ft | 351 kts | 107° |
| 2026-05-03 22:14 | 40.20535 | -76.57239 | 13868 ft | 348 kts | 109° |
| 2026-05-03 22:15 | 40.20059 | -76.55226 | 13526 ft | 346 kts | 103° |
| 2026-05-03 22:15 | 40.19186 | -76.51131 | 12798 ft | 342 kts | 108° |
| 2026-05-03 22:15 | 40.18405 | -76.48082 | 12262 ft | 340 kts | 105° |
| 2026-05-03 22:15 | 40.17765 | -76.45107 | 11745 ft | 337 kts | 105° |
| 2026-05-03 22:16 | 40.17296 | -76.43155 | 11404 ft | 336 kts | 108° |
| 2026-05-03 22:16 | 40.16570 | -76.40212 | 10910 ft | 332 kts | 104° |
| 2026-05-03 22:16 | 40.15940 | -76.37223 | 10510 ft | 324 kts | 106° |
| 2026-05-03 22:16 | 40.15194 | -76.34435 | 10139 ft | 318 kts | 109° |
| 2026-05-03 22:17 | 40.14580 | -76.31802 | 9764 ft | 312 kts | 102° |
| 2026-05-03 22:17 | 40.14037 | -76.29062 | 9352 ft | 308 kts | 103° |
| 2026-05-03 22:17 | 40.13492 | -76.26301 | 8960 ft | 304 kts | 102° |
| 2026-05-03 22:17 | 40.12962 | -76.23614 | 8600 ft | 301 kts | 103° |
| 2026-05-03 22:18 | 40.12439 | -76.20953 | 8244 ft | 297 kts | 103° |
| 2026-05-03 22:18 | 40.11928 | -76.18301 | 7988 ft | 291 kts | 101° |
| 2026-05-03 22:18 | 40.11534 | -76.15749 | 7980 ft | 281 kts | 98° |
| 2026-05-03 22:18 | 40.11176 | -76.13104 | 7998 ft | 282 kts | 97° |
| 2026-05-03 22:19 | 40.10874 | -76.10444 | 7992 ft | 283 kts | 95° |
| 2026-05-03 22:19 | 40.10633 | -76.07865 | 8000 ft | 283 kts | 94° |
| 2026-05-03 22:19 | 40.10423 | -76.05275 | 7996 ft | 284 kts | 94° |
| 2026-05-03 22:19 | 40.10231 | -76.02673 | 8003 ft | 286 kts | 93° |
| 2026-05-03 22:20 | 40.10108 | -76.00937 | 7998 ft | 286 kts | 93° |
| 2026-05-03 22:20 | 40.09928 | -75.98256 | 8011 ft | 285 kts | 93° |
| 2026-05-03 22:20 | 40.09752 | -75.95619 | 7985 ft | 283 kts | 93° |
| 2026-05-03 22:20 | 40.09582 | -75.93068 | 7994 ft | 283 kts | 92° |
| 2026-05-03 22:21 | 40.09413 | -75.90524 | 7989 ft | 282 kts | 92° |
| 2026-05-03 22:21 | 40.09239 | -75.87970 | 7991 ft | 282 kts | 92° |
| 2026-05-03 22:21 | 40.09060 | -75.85318 | 7995 ft | 281 kts | 92° |
| 2026-05-03 22:21 | 40.08885 | -75.82684 | 7987 ft | 281 kts | 92° |
| 2026-05-03 22:22 | 40.08709 | -75.80098 | 7988 ft | 276 kts | 92° |
| 2026-05-03 22:22 | 40.08540 | -75.77562 | 7988 ft | 270 kts | 92° |
| 2026-05-03 22:22 | 40.08377 | -75.75126 | 7980 ft | 264 kts | 92° |
| 2026-05-03 22:22 | 40.08209 | -75.72704 | 7903 ft | 258 kts | 92° |
| 2026-05-03 22:23 | 40.08041 | -75.70199 | 7739 ft | 257 kts | 92° |
| 2026-05-03 22:23 | 40.07989 | -75.69416 | 7680 ft | 256 kts | 92° |
| 2026-05-03 22:23 | 40.07900 | -75.68052 | 7588 ft | 255 kts | 92° |
| 2026-05-03 22:23 | 40.07748 | -75.65712 | 7390 ft | 254 kts | 92° |
| 2026-05-03 22:24 | 40.07591 | -75.63397 | 7183 ft | 254 kts | 93° |
| 2026-05-03 22:24 | 40.07437 | -75.61114 | 6986 ft | 253 kts | 92° |
| 2026-05-03 22:24 | 40.07268 | -75.58566 | 6765 ft | 252 kts | 92° |
| 2026-05-03 22:24 | 40.07110 | -75.56220 | 6557 ft | 253 kts | 93° |
| 2026-05-03 22:25 | 40.06953 | -75.53922 | 6358 ft | 254 kts | 93° |
| 2026-05-03 22:25 | 40.06797 | -75.51607 | 6146 ft | 253 kts | 92° |
| 2026-05-03 22:25 | 40.06647 | -75.49307 | 5935 ft | 252 kts | 93° |
| 2026-05-03 22:25 | 40.06488 | -75.46957 | 5734 ft | 252 kts | 93° |
| 2026-05-03 22:26 | 40.06327 | -75.44638 | 5518 ft | 254 kts | 93° |
| 2026-05-03 22:26 | 40.06171 | -75.42305 | 5317 ft | 253 kts | 93° |
| 2026-05-03 22:26 | 40.06067 | -75.40724 | 5152 ft | 252 kts | 93° |
| 2026-05-03 22:26 | 40.05907 | -75.38338 | 4960 ft | 252 kts | 93° |
| 2026-05-03 22:27 | 40.05754 | -75.36071 | 4729 ft | 251 kts | 94° |
| 2026-05-03 22:27 | 40.05601 | -75.33769 | 4518 ft | 249 kts | 93° |
| 2026-05-03 22:27 | 40.05449 | -75.31516 | 4304 ft | 249 kts | 93° |
| 2026-05-03 22:27 | 40.05293 | -75.29235 | 4091 ft | 249 kts | 94° |
| 2026-05-03 22:28 | 40.05146 | -75.27009 | 3897 ft | 248 kts | 95° |
| 2026-05-03 22:28 | 40.04585 | -75.24874 | 3667 ft | 250 kts | 126° |
| 2026-05-03 22:28 | 40.03411 | -75.23190 | 3478 ft | 250 kts | 137° |
| 2026-05-03 22:28 | 40.02207 | -75.21560 | 3310 ft | 254 kts | 130° |
| 2026-05-03 22:29 | 40.01096 | -75.19673 | 3184 ft | 253 kts | 128° |
| 2026-05-03 22:29 | 40.00031 | -75.17869 | 2995 ft | 252 kts | 128° |
| 2026-05-03 22:29 | 39.98976 | -75.16069 | 2982 ft | 242 kts | 128° |
| 2026-05-03 22:29 | 39.97972 | -75.14338 | 2990 ft | 231 kts | 128° |
| 2026-05-03 22:30 | 39.97001 | -75.12670 | 2855 ft | 231 kts | 128° |
| 2026-05-03 22:30 | 39.96001 | -75.10973 | 2605 ft | 229 kts | 128° |
| 2026-05-03 22:30 | 39.95015 | -75.09300 | 2406 ft | 229 kts | 128° |
| 2026-05-03 22:30 | 39.94046 | -75.07648 | 2187 ft | 229 kts | 128° |
| 2026-05-03 22:31 | 39.93064 | -75.06025 | 2115 ft | 223 kts | 131° |
| 2026-05-03 22:31 | 39.91804 | -75.04888 | 2009 ft | 211 kts | 173° |
| 2026-05-03 22:31 | 39.90434 | -75.05213 | 1900 ft | 193 kts | 225° |
| 2026-05-03 22:31 | 39.89864 | -75.06620 | 1971 ft | 174 kts | 276° |
| 2026-05-03 22:32 | 39.90203 | -75.08069 | 2201 ft | 164 kts | 294° |
| 2026-05-03 22:32 | 39.90217 | -75.09579 | 2074 ft | 176 kts | 245° |
| 2026-05-03 22:32 | 39.89820 | -75.10513 | 2188 ft | 164 kts | 250° |
| 2026-05-03 22:32 | 39.89532 | -75.11926 | 1947 ft | 161 kts | 264° |
| 2026-05-03 22:33 | 39.89311 | -75.13421 | 1486 ft | 163 kts | 258° |
| 2026-05-03 22:33 | 39.89009 | -75.14784 | 1256 ft | 150 kts | 257° |
| 2026-05-03 22:33 | 39.88750 | -75.16096 | 1054 ft | 138 kts | 260° |
| 2026-05-03 22:33 | 39.88525 | -75.17273 | 840 ft | 126 kts | 260° |
| 2026-05-03 22:34 | 39.88304 | -75.18369 | 658 ft | 123 kts | 259° |
| 2026-05-03 22:34 | 39.88085 | -75.19461 | 509 ft | 125 kts | 261° |
| 2026-05-03 22:34 | 39.87862 | -75.20610 | 310 ft | 121 kts | 256° |
| 2026-05-03 22:34 | 39.87635 | -75.21679 | 127 ft | 115 kts | 259° |
| 2026-05-03 22:35 | 39.87436 | -75.22694 | 36 ft | 110 kts | 259° |
| 2026-05-03 22:35 | 39.87333 | -75.23237 | 23 ft | 90 kts | 255° |
| 2026-05-03 22:35 | 39.87211 | -75.23843 | 27 ft | 47 kts | 255° |
| 2026-05-03 22:35 | 39.87160 | -75.24130 | 27 ft | 22 kts | 263° |
| 2026-05-03 22:36 | 39.87159 | -75.24235 | 28 ft | 12 kts | 274° |
| 2026-05-03 22:36 | 39.87176 | -75.24363 | 27 ft | 14 kts | 282° |
| 2026-05-03 22:36 | 39.87189 | -75.24439 | 29 ft | 0 kts | 285° |
| 2026-05-03 22:37 | 39.87190 | -75.24442 | 28 ft | 2 kts | 285° |
| 2026-05-03 22:37 | 39.87194 | -75.24479 | 26 ft | 7 kts | 271° |
| 2026-05-03 22:37 | 39.87185 | -75.24554 | 27 ft | 10 kts | 255° |
| 2026-05-03 22:38 | 39.87182 | -75.24650 | 25 ft | 8 kts | 307° |
| 2026-05-03 22:38 | 39.87218 | -75.24666 | 27 ft | 7 kts | 22° |
| 2026-05-03 22:38 | 39.87244 | -75.24612 | 25 ft | 9 kts | 72° |
| 2026-05-03 22:38 | 39.87282 | -75.24552 | 26 ft | 7 kts | 11° |
| 2026-05-03 22:39 | 39.87329 | -75.24559 | 26 ft | 10 kts | 346° |
| 2026-05-03 22:39 | 39.87368 | -75.24572 | 25 ft | 5 kts | 342° |
| 2026-05-03 22:39 | 39.87390 | -75.24607 | 28 ft | 3 kts | 285° |
| 2026-05-03 22:39 | 39.87395 | -75.24636 | 25 ft | 1 kts | 283° |
| 2026-05-03 22:40 | 39.87396 | -75.24640 | 25 ft | 1 kts | 283° |
| 2026-05-03 22:40 | 39.87396 | -75.24641 | 25 ft | 0 kts | 283° |